Time;durP1;ratioP1;P1;durP2;ratioP2;P2;SDS_P1;SDS_P2;PMS_P1;PMS_P2;Temp;Humidity;BMP_temperature;BMP_pressure;BME280_temperature;BME280_humidity;BME280_pressure;Samples;Min_cycle;Max_cycle;Signal;HPM_P1;HPM_P2
2021/09/16 00:02:27;;;;;;;34.73;21.93;;;19.00;99.90;;;;;;8300127;28;20217;-82
2021/09/16 00:06:28;;;;;;;31.80;20.33;;;18.90;99.90;;;;;;8285900;28;20195;-82
2021/09/16 00:10:29;;;;;;;28.23;19.80;;;18.90;99.90;;;;;;8305171;28;20183;-80
2021/09/16 00:14:29;;;;;;;28.27;20.00;;;18.90;99.90;;;;;;8304573;28;20598;-84
2021/09/16 00:18:30;;;;;;;32.87;19.40;;;18.80;99.90;;;;;;8303315;28;20219;-82
2021/09/16 00:22:31;;;;;;;30.20;17.37;;;18.80;99.90;;;;;;8303079;28;20212;-80
2021/09/16 00:26:31;;;;;;;28.67;15.70;;;18.80;99.90;;;;;;8288278;28;20195;-82
2021/09/16 00:30:32;;;;;;;30.77;15.40;;;18.80;99.90;;;;;;8289035;28;20454;-81
2021/09/16 00:34:33;;;;;;;19.43;11.30;;;18.70;99.90;;;;;;8302037;28;20192;-83
2021/09/16 00:38:33;;;;;;;13.00;9.90;;;18.70;99.90;;;;;;8283596;28;20187;-81
2021/09/16 00:42:34;;;;;;;19.83;10.37;;;18.60;99.90;;;;;;8306237;28;20212;-81
2021/09/16 00:46:35;;;;;;;13.03;8.73;;;18.50;99.90;;;;;;8304968;28;20193;-84
2021/09/16 00:50:37;;;;;;;16.77;9.20;;;18.50;99.90;;;;;;8300621;28;20228;-84
2021/09/16 00:54:42;;;;;;;12.87;9.17;;;18.40;99.90;;;;;;8302381;28;20287;-83
2021/09/16 00:58:46;;;;;;;15.97;8.90;;;18.40;99.90;;;;;;8285954;28;20810;-80
2021/09/16 01:02:47;;;;;;;16.23;9.83;;;18.40;99.90;;;;;;8285597;28;20457;-82
2021/09/16 01:06:48;;;;;;;14.83;10.93;;;18.40;99.90;;;;;;8283222;28;20527;-80
2021/09/16 01:10:51;;;;;;;20.50;9.50;;;18.50;99.90;;;;;;8305775;28;20832;-80
2021/09/16 01:14:52;;;;;;;15.10;8.40;;;18.40;99.90;;;;;;8320036;28;20184;-82
2021/09/16 01:18:52;;;;;;;15.67;8.90;;;18.40;99.90;;;;;;8283692;28;20803;-83
2021/09/16 01:22:54;;;;;;;14.40;7.97;;;18.30;99.90;;;;;;8302120;28;20214;-80
2021/09/16 01:26:54;;;;;;;14.13;9.07;;;18.30;99.90;;;;;;8300019;28;20190;-81
2021/09/16 01:30:55;;;;;;;18.27;9.13;;;18.20;99.90;;;;;;8296350;28;20441;-82
2021/09/16 01:34:56;;;;;;;9.57;6.90;;;18.20;99.90;;;;;;8286120;28;20218;-81
2021/09/16 01:38:57;;;;;;;7.60;6.87;;;18.10;99.90;;;;;;8303437;28;20184;-81
2021/09/16 01:42:57;;;;;;;11.40;6.87;;;18.10;99.90;;;;;;8299379;28;20215;-82
2021/09/16 01:46:58;;;;;;;22.83;7.80;;;18.00;99.90;;;;;;8290891;28;20772;-79
2021/09/16 01:50:59;;;;;;;16.37;6.83;;;18.00;99.90;;;;;;8295484;28;20634;-83
2021/09/16 01:54:59;;;;;;;12.87;6.80;;;17.90;99.90;;;;;;8298332;28;20191;-82
2021/09/16 01:59:00;;;;;;;8.47;6.27;;;17.90;99.90;;;;;;8284068;28;20252;-80
2021/09/16 02:03:00;;;;;;;11.27;7.13;;;17.90;99.90;;;;;;8304915;28;20238;-82
2021/09/16 02:07:01;;;;;;;16.80;6.47;;;17.90;99.90;;;;;;8299900;28;20181;-81
2021/09/16 02:11:07;;;;;;;9.70;6.83;;;17.90;99.90;;;;;;8281578;28;20626;-82
2021/09/16 02:15:08;;;;;;;10.67;7.00;;;17.90;99.90;;;;;;8302550;28;20226;-83
2021/09/16 02:19:09;;;;;;;10.63;7.23;;;17.80;99.90;;;;;;8301966;28;20439;-83
2021/09/16 02:23:10;;;;;;;8.90;6.33;;;17.80;99.90;;;;;;8305119;28;20211;-82
2021/09/16 02:27:10;;;;;;;9.47;7.10;;;17.80;99.90;;;;;;8298705;28;20189;-80
2021/09/16 02:31:11;;;;;;;10.43;5.97;;;17.70;99.90;;;;;;8294997;28;20187;-81
2021/09/16 02:35:12;;;;;;;6.73;5.97;;;17.70;99.90;;;;;;8298586;28;20218;-80
2021/09/16 02:39:13;;;;;;;14.40;5.90;;;17.70;99.90;;;;;;8298369;28;20528;-81
2021/09/16 02:43:13;;;;;;;10.17;6.80;;;17.70;99.90;;;;;;8305491;28;20465;-83
2021/09/16 02:47:14;;;;;;;13.77;8.57;;;17.60;99.90;;;;;;8289032;28;20298;-82
2021/09/16 02:51:15;;;;;;;11.53;7.30;;;17.60;99.90;;;;;;8302764;28;20678;-82
2021/09/16 02:55:18;;;;;;;19.97;8.67;;;17.50;99.90;;;;;;8292543;28;20196;-83
2021/09/16 02:59:19;;;;;;;13.33;9.07;;;17.50;99.90;;;;;;8291404;28;20187;-82
2021/09/16 03:03:20;;;;;;;19.30;11.03;;;17.40;99.90;;;;;;8277433;28;20955;-81
2021/09/16 03:07:20;;;;;;;15.70;9.03;;;17.30;99.90;;;;;;8294708;28;20508;-82
2021/09/16 03:11:21;;;;;;;18.87;11.70;;;17.30;99.90;;;;;;8292049;28;20193;-81
2021/09/16 03:15:22;;;;;;;18.80;12.67;;;17.30;99.90;;;;;;8297954;28;20281;-81
2021/09/16 03:19:23;;;;;;;27.47;14.20;;;17.30;99.90;;;;;;8296335;28;20574;-81
2021/09/16 03:23:24;;;;;;;51.40;19.00;;;17.30;99.90;;;;;;8298924;28;20464;-81
2021/09/16 03:27:24;;;;;;;26.47;13.83;;;17.30;99.90;;;;;;8299885;28;20189;-81
2021/09/16 03:31:25;;;;;;;30.03;10.63;;;17.30;99.90;;;;;;8278017;28;20190;-82
2021/09/16 03:35:25;;;;;;;23.07;13.00;;;17.20;99.90;;;;;;8298880;28;20206;-79
2021/09/16 03:39:26;;;;;;;18.17;10.60;;;17.10;99.90;;;;;;8303355;28;20209;-79
2021/09/16 03:43:27;;;;;;;20.33;9.10;;;17.00;99.90;;;;;;8296120;28;20564;-80
2021/09/16 03:47:28;;;;;;;16.83;8.23;;;16.90;99.90;;;;;;8297092;28;20195;-78
2021/09/16 03:51:28;;;;;;;10.53;7.83;;;16.70;99.90;;;;;;8300744;28;20479;-81
2021/09/16 03:55:29;;;;;;;21.70;8.63;;;16.60;99.90;;;;;;8311587;28;20184;-81
2021/09/16 03:59:30;;;;;;;20.37;8.70;;;16.60;99.90;;;;;;8298293;28;20183;-80
2021/09/16 04:03:31;;;;;;;13.93;8.00;;;16.60;99.90;;;;;;8296735;28;20870;-78
2021/09/16 04:07:31;;;;;;;15.80;8.10;;;16.60;99.90;;;;;;8278162;28;20275;-81
2021/09/16 04:11:32;;;;;;;13.30;7.90;;;16.60;99.90;;;;;;8280163;28;20291;-81
2021/09/16 04:15:33;;;;;;;14.80;7.80;;;16.50;99.90;;;;;;8299678;28;20216;-79
2021/09/16 04:19:33;;;;;;;9.70;6.97;;;16.40;99.90;;;;;;8296512;28;20544;-80
2021/09/16 04:23:34;;;;;;;13.70;8.80;;;16.30;99.90;;;;;;8300097;28;20463;-80
2021/09/16 04:27:34;;;;;;;17.43;8.93;;;16.20;99.90;;;;;;8287505;28;20189;-79
2021/09/16 04:31:35;;;;;;;12.27;7.90;;;16.10;99.90;;;;;;8277180;28;20185;-80
2021/09/16 04:35:36;;;;;;;17.10;8.60;;;16.00;99.90;;;;;;8294084;28;20286;-80
2021/09/16 04:39:36;;;;;;;13.27;9.60;;;15.90;99.90;;;;;;8292899;28;20177;-80
2021/09/16 04:43:37;;;;;;;19.33;7.60;;;15.90;99.90;;;;;;8270021;28;20236;-78
2021/09/16 04:47:40;;;;;;;13.80;9.10;;;15.90;99.90;;;;;;8291531;28;20247;-83
2021/09/16 04:51:40;;;;;;;14.80;8.40;;;15.90;99.90;;;;;;8287092;28;20227;-79
2021/09/16 04:55:41;;;;;;;13.63;7.77;;;15.90;99.90;;;;;;8295598;28;20526;-86
2021/09/16 04:59:42;;;;;;;13.13;8.07;;;15.90;99.90;;;;;;8300750;28;20172;-80
2021/09/16 05:03:42;;;;;;;11.67;8.27;;;15.90;99.90;;;;;;8290102;28;20240;-80
2021/09/16 05:07:43;;;;;;;21.13;8.70;;;16.00;99.90;;;;;;8298076;28;20181;-79
2021/09/16 05:11:45;;;;;;;13.60;8.63;;;16.00;99.90;;;;;;8293158;28;20223;-80
2021/09/16 05:15:47;;;;;;;16.67;9.00;;;15.90;99.90;;;;;;8295968;28;20212;-81
2021/09/16 05:19:47;;;;;;;15.00;9.13;;;15.90;99.90;;;;;;8276673;28;20530;-82
2021/09/16 05:23:48;;;;;;;14.67;9.50;;;15.80;99.90;;;;;;8294485;28;20478;-80
2021/09/16 05:27:48;;;;;;;16.20;10.10;;;15.70;99.90;;;;;;8312702;28;20198;-78
2021/09/16 05:31:49;;;;;;;17.40;8.67;;;15.70;99.90;;;;;;8311099;28;20181;-81
2021/09/16 05:35:50;;;;;;;12.53;9.23;;;15.60;99.90;;;;;;8272686;28;20172;-82
2021/09/16 05:39:50;;;;;;;16.50;10.17;;;15.60;99.90;;;;;;8288715;28;23031;-81
2021/09/16 05:43:51;;;;;;;17.60;11.30;;;15.60;99.90;;;;;;8296635;28;20214;-77
2021/09/16 05:47:52;;;;;;;19.43;10.40;;;15.50;99.90;;;;;;8276920;28;20196;-78
2021/09/16 05:51:52;;;;;;;19.20;11.13;;;15.60;99.90;;;;;;8276236;28;20228;-80
2021/09/16 05:55:53;;;;;;;17.27;11.23;;;15.60;99.90;;;;;;8292462;28;20187;-83
2021/09/16 05:59:54;;;;;;;16.83;11.07;;;15.60;99.90;;;;;;8276321;28;20180;-84
2021/09/16 06:03:54;;;;;;;16.47;11.63;;;15.60;99.90;;;;;;8273645;28;20287;-84
2021/09/16 06:07:55;;;;;;;22.50;14.73;;;15.60;99.90;;;;;;8282666;28;20227;-81
2021/09/16 06:11:56;;;;;;;15.27;10.90;;;15.60;99.90;;;;;;8291172;28;21010;-80
2021/09/16 06:15:56;;;;;;;14.90;10.97;;;15.70;99.90;;;;;;8305102;28;20196;-83
2021/09/16 06:19:57;;;;;;;19.20;12.23;;;15.70;99.90;;;;;;8297691;28;20509;-83
2021/09/16 06:23:57;;;;;;;15.60;11.00;;;15.80;99.90;;;;;;8300392;28;20204;-81
2021/09/16 06:27:58;;;;;;;21.13;12.00;;;15.80;99.90;;;;;;8316063;28;20184;-80
2021/09/16 06:31:59;;;;;;;13.60;10.10;;;15.90;99.90;;;;;;8302683;28;20177;-81
2021/09/16 06:35:59;;;;;;;16.10;11.70;;;16.00;99.90;;;;;;8287688;28;20193;-80
2021/09/16 06:40:01;;;;;;;15.40;10.93;;;16.10;99.90;;;;;;8301272;28;20183;-81
2021/09/16 06:44:01;;;;;;;18.63;9.67;;;16.30;99.90;;;;;;8308330;28;20213;-80
2021/09/16 06:48:02;;;;;;;12.60;10.30;;;16.60;99.90;;;;;;8277768;28;20455;-79
2021/09/16 06:52:03;;;;;;;18.43;10.70;;;16.80;99.90;;;;;;8307924;28;20254;-84
2021/09/16 06:56:04;;;;;;;17.63;9.40;;;16.90;99.90;;;;;;8296341;28;20436;-83
2021/09/16 07:00:06;;;;;;;14.33;9.23;;;17.00;99.90;;;;;;8294887;28;20178;-81
2021/09/16 07:04:07;;;;;;;16.97;9.90;;;17.30;99.90;;;;;;8291996;28;20268;-79
2021/09/16 07:08:07;;;;;;;16.73;8.70;;;17.40;99.90;;;;;;8298516;28;20570;-83
2021/09/16 07:12:08;;;;;;;13.40;9.60;;;17.70;99.90;;;;;;8295691;28;20579;-81
2021/09/16 07:16:08;;;;;;;11.50;9.00;;;17.80;99.90;;;;;;8294130;28;20646;-82
2021/09/16 07:20:10;;;;;;;15.03;9.30;;;17.90;99.90;;;;;;8292901;28;20192;-82
2021/09/16 07:24:12;;;;;;;12.87;9.57;;;17.90;99.90;;;;;;8301262;28;20215;-79
2021/09/16 07:28:12;;;;;;;15.43;8.33;;;17.90;99.90;;;;;;8287207;28;20447;-80
2021/09/16 07:32:14;;;;;;;14.10;9.13;;;18.10;99.90;;;;;;8301111;28;20435;-80
2021/09/16 07:36:14;;;;;;;12.07;9.07;;;18.20;99.90;;;;;;8300447;28;20202;-79
2021/09/16 07:40:15;;;;;;;8.83;6.87;;;18.30;99.90;;;;;;8307459;28;20442;-79
2021/09/16 07:44:17;;;;;;;7.90;4.37;;;18.60;99.90;;;;;;8288338;28;20200;-80
2021/09/16 07:48:19;;;;;;;11.23;5.20;;;18.80;99.90;;;;;;8284471;28;20208;-84
2021/09/16 07:52:20;;;;;;;9.43;4.77;;;19.10;99.90;;;;;;8305809;28;20513;-81
2021/09/16 07:56:20;;;;;;;7.70;4.60;;;19.20;99.50;;;;;;8291548;28;20443;-79
2021/09/16 08:00:21;;;;;;;9.23;4.20;;;19.20;99.70;;;;;;8313208;28;20239;-80
2021/09/16 08:04:22;;;;;;;8.00;4.67;;;19.40;99.50;;;;;;8307903;28;20200;-81
2021/09/16 08:08:23;;;;;;;8.20;5.30;;;19.50;99.20;;;;;;8291722;28;20211;-81
2021/09/16 08:12:23;;;;;;;10.40;5.10;;;19.60;99.10;;;;;;8296482;28;20246;-81
2021/09/16 08:16:24;;;;;;;10.73;5.67;;;19.90;99.00;;;;;;8299501;28;20184;-82
2021/09/16 08:20:26;;;;;;;10.50;5.77;;;20.10;98.30;;;;;;8302349;28;20186;-81
2021/09/16 08:24:26;;;;;;;5.77;4.30;;;20.20;98.20;;;;;;8319059;28;20259;-82
2021/09/16 08:28:27;;;;;;;7.23;4.30;;;20.30;97.90;;;;;;8306975;28;20434;-80
2021/09/16 08:32:28;;;;;;;5.53;4.30;;;20.40;97.60;;;;;;8289381;28;20277;-79
2021/09/16 08:36:28;;;;;;;9.73;4.30;;;20.50;97.30;;;;;;8311646;28;20225;-80
2021/09/16 08:40:29;;;;;;;6.23;3.90;;;20.60;96.90;;;;;;8312725;28;20186;-82
2021/09/16 08:44:30;;;;;;;13.70;4.70;;;20.80;96.70;;;;;;8305721;28;20210;-82
2021/09/16 08:48:31;;;;;;;4.90;4.07;;;21.10;96.70;;;;;;8331014;28;20473;-80
2021/09/16 08:52:37;;;;;;;5.23;3.60;;;21.20;96.40;;;;;;8310443;28;20187;-82
2021/09/16 08:56:43;;;;;;;6.50;4.40;;;21.10;95.90;;;;;;8311417;28;20224;-82
2021/09/16 09:00:45;;;;;;;4.77;3.23;;;21.00;95.90;;;;;;8305429;28;20435;-80
2021/09/16 09:04:46;;;;;;;5.43;3.43;;;21.10;96.20;;;;;;8297414;28;20469;-81
2021/09/16 09:09:08;;;;;;;5.83;4.30;;;21.10;94.90;;;;;;8308032;28;21010;-81
2021/09/16 09:13:27;;;;;;;4.87;3.20;;;21.40;95.60;;;;;;8306115;28;20660;-81
2021/09/16 09:17:33;;;;;;;7.77;3.70;;;21.70;95.30;;;;;;8305132;28;20822;-83
2021/09/16 09:21:36;;;;;;;3.53;3.23;;;21.80;95.10;;;;;;8308171;28;20495;-79
2021/09/16 09:25:37;;;;;;;4.33;3.70;;;21.60;95.10;;;;;;8306843;28;20463;-78
2021/09/16 09:29:38;;;;;;;5.20;4.23;;;21.80;94.10;;;;;;8305695;28;20541;-81
2021/09/16 09:33:39;;;;;;;9.43;4.30;;;22.10;94.80;;;;;;8307500;28;20195;-79
2021/09/16 09:37:45;;;;;;;14.30;4.63;;;22.60;93.20;;;;;;8292875;28;20176;-79
2021/09/16 09:42:12;;;;;;;8.70;4.40;;;22.80;92.90;;;;;;8278339;28;20246;-79
2021/09/16 09:46:57;;;;;;;4.87;4.27;;;23.30;92.20;;;;;;8305246;28;20518;-80
2021/09/16 09:51:03;;;;;;;8.70;3.63;;;23.30;92.70;;;;;;8311643;28;20458;-81
2021/09/16 09:55:17;;;;;;;6.90;3.90;;;23.70;92.20;;;;;;8312873;28;20477;-81
2021/09/16 09:59:19;;;;;;;4.23;3.03;;;24.20;91.70;;;;;;8325421;28;20456;-81
2021/09/16 10:03:38;;;;;;;8.60;4.03;;;24.40;91.40;;;;;;8308490;28;21367;-80
2021/09/16 10:07:40;;;;;;;3.53;3.20;;;24.00;90.50;;;;;;8301438;28;20443;-81
2021/09/16 10:11:58;;;;;;;7.13;3.00;;;24.10;91.20;;;;;;8315807;28;20447;-80
2021/09/16 10:16:06;;;;;;;4.80;4.27;;;24.70;90.50;;;;;;8315973;28;20439;-80
2021/09/16 10:20:13;;;;;;;5.17;3.90;;;24.60;89.90;;;;;;8299966;28;20456;-81
2021/09/16 10:24:17;;;;;;;7.00;4.30;;;24.60;89.40;;;;;;8316234;28;20541;-80
2021/09/16 10:28:40;;;;;;;9.93;4.33;;;24.80;88.40;;;;;;8296085;28;20478;-81
2021/09/16 10:33:31;;;;;;;5.30;4.80;;;24.90;88.50;;;;;;8299953;28;20458;-80
2021/09/16 10:37:36;;;;;;;12.70;5.83;;;24.70;88.00;;;;;;8301931;28;20446;-81
2021/09/16 10:41:45;;;;;;;7.47;4.20;;;24.30;88.90;;;;;;8306485;28;20448;-80
2021/09/16 10:45:46;;;;;;;6.53;4.80;;;23.50;89.50;;;;;;8311625;28;20468;-80
2021/09/16 10:49:52;;;;;;;4.20;3.90;;;23.00;90.50;;;;;;8283644;28;20568;-80
2021/09/16 10:53:55;;;;;;;8.50;5.37;;;22.90;91.30;;;;;;8309520;28;20195;-80
2021/09/16 10:58:35;;;;;;;6.03;5.50;;;22.90;91.60;;;;;;8311595;28;20430;-79
2021/09/16 11:03:02;;;;;;;6.47;4.53;;;23.30;91.30;;;;;;8186560;28;20513;-82
2021/09/16 11:07:35;;;;;;;10.53;6.20;;;23.70;90.30;;;;;;8275199;28;20450;-81
2021/09/16 11:12:02;;;;;;;14.20;5.70;;;23.70;90.30;;;;;;8311183;28;20456;-79
2021/09/16 11:16:05;;;;;;;9.00;7.67;;;23.50;90.60;;;;;;8310087;28;20454;-79
2021/09/16 11:20:09;;;;;;;9.10;7.00;;;23.10;90.90;;;;;;8292577;28;20440;-79
2021/09/16 11:24:10;;;;;;;7.00;6.03;;;22.70;91.40;;;;;;8311578;28;20460;-81
2021/09/16 11:28:11;;;;;;;6.60;5.63;;;22.90;91.60;;;;;;8306178;28;20405;-80
2021/09/16 11:32:15;;;;;;;9.10;6.40;;;23.40;90.40;;;;;;8298516;28;20206;-78
2021/09/16 11:36:17;;;;;;;7.83;6.10;;;23.70;90.30;;;;;;8302807;28;20435;-83
2021/09/16 11:40:22;;;;;;;8.53;5.67;;;24.50;88.50;;;;;;8311070;28;20458;-77
2021/09/16 11:44:23;;;;;;;9.33;6.57;;;24.40;87.60;;;;;;8287273;28;20467;-78
2021/09/16 11:48:25;;;;;;;6.93;6.23;;;24.00;88.30;;;;;;8281846;28;20522;-77
2021/09/16 11:52:26;;;;;;;8.73;6.27;;;23.40;89.10;;;;;;8281675;28;20256;-77
2021/09/16 11:56:26;;;;;;;8.37;6.70;;;23.00;90.60;;;;;;8283980;28;20509;-76
2021/09/16 12:00:31;;;;;;;10.10;7.50;;;22.90;90.80;;;;;;8288713;28;20180;-76
2021/09/16 12:04:40;;;;;;;7.77;7.07;;;23.10;90.80;;;;;;8294252;28;20239;-77
2021/09/16 12:08:46;;;;;;;9.20;7.00;;;23.30;90.60;;;;;;8298772;28;20435;-76
2021/09/16 12:12:48;;;;;;;10.33;8.43;;;23.40;90.50;;;;;;8292620;28;20759;-77
2021/09/16 12:16:49;;;;;;;9.77;7.80;;;23.30;90.30;;;;;;8287538;28;20410;-77
2021/09/16 12:20:50;;;;;;;13.73;8.60;;;23.10;90.90;;;;;;8289380;28;20443;-76
2021/09/16 12:24:51;;;;;;;10.17;7.97;;;23.00;91.00;;;;;;8316922;28;20474;-76
2021/09/16 12:28:57;;;;;;;12.13;9.67;;;22.80;91.20;;;;;;8299452;28;20266;-76
2021/09/16 12:32:57;;;;;;;12.97;8.67;;;23.00;90.70;;;;;;8297287;28;20438;-76
2021/09/16 12:37:09;;;;;;;11.97;7.80;;;23.50;90.70;;;;;;8296494;28;20514;-76
2021/09/16 12:41:23;;;;;;;8.17;7.43;;;24.10;89.40;;;;;;8296060;28;20232;-76
2021/09/16 12:45:28;;;;;;;7.77;6.60;;;24.80;85.70;;;;;;8291321;28;20474;-76
2021/09/16 12:49:32;;;;;;;10.67;8.53;;;25.10;85.40;;;;;;8297744;28;20498;-77
2021/09/16 12:53:43;;;;;;;12.10;8.33;;;24.90;84.50;;;;;;8290600;28;20422;-76
2021/09/16 12:57:44;;;;;;;8.30;6.83;;;24.50;86.20;;;;;;8290398;28;21014;-77
2021/09/16 13:01:46;;;;;;;7.47;6.70;;;24.30;85.60;;;;;;8290517;28;20784;-78
2021/09/16 13:05:49;;;;;;;11.20;6.57;;;24.10;87.00;;;;;;8290313;28;20474;-77
2021/09/16 13:10:09;;;;;;;13.70;8.13;;;23.90;86.70;;;;;;8286964;28;20437;-78
2021/09/16 13:14:13;;;;;;;11.90;7.05;;;23.80;86.00;;;;;;6863023;28;10021730;-76
2021/09/16 13:18:13;;;;;;;8.23;7.27;;;24.10;86.20;;;;;;5000585;28;10002077;-77
2021/09/16 13:22:14;;;;;;;9.50;7.00;;;24.50;85.40;;;;;;8284684;28;20528;-77
2021/09/16 13:26:15;;;;;;;7.70;6.90;;;24.80;84.30;;;;;;8285982;28;20199;-77
2021/09/16 13:30:16;;;;;;;11.43;7.30;;;25.00;83.50;;;;;;8286875;28;20180;-76
2021/09/16 13:34:17;;;;;;;7.57;6.87;;;25.50;83.00;;;;;;8283591;28;20186;-78
2021/09/16 13:38:18;;;;;;;9.67;7.57;;;25.60;82.00;;;;;;8269868;28;20481;-78
2021/09/16 13:42:18;;;;;;;11.33;8.20;;;25.40;81.80;;;;;;8266000;28;20188;-78
2021/09/16 13:46:19;;;;;;;11.00;6.80;;;25.00;82.20;;;;;;8277677;28;21038;-78
2021/09/16 13:50:20;;;;;;;12.13;8.70;;;24.70;82.50;;;;;;8276239;28;20657;-78
2021/09/16 13:54:21;;;;;;;6.57;5.97;;;24.70;84.00;;;;;;8275042;28;20193;-78
2021/09/16 13:58:22;;;;;;;7.83;4.63;;;24.60;81.60;;;;;;8285629;28;20763;-77
2021/09/16 14:02:22;;;;;;;5.90;4.80;;;24.30;82.80;;;;;;8280170;28;20180;-78
2021/09/16 14:06:23;;;;;;;7.00;5.50;;;24.10;83.70;;;;;;8290868;28;20280;-78
2021/09/16 14:10:24;;;;;;;7.20;6.33;;;23.80;84.70;;;;;;8288250;28;20260;-78
2021/09/16 14:14:24;;;;;;;10.00;7.40;;;23.50;85.10;;;;;;8285719;28;20191;-77
2021/09/16 14:18:25;;;;;;;6.70;6.10;;;23.40;86.70;;;;;;8290954;28;20180;-78
2021/09/16 14:22:26;;;;;;;7.83;7.03;;;23.40;86.80;;;;;;8281782;28;20214;-78
2021/09/16 14:26:26;;;;;;;8.30;6.30;;;23.90;86.10;;;;;;8288317;28;20175;-79
2021/09/16 14:30:27;;;;;;;6.13;5.03;;;24.40;83.90;;;;;;8296136;28;20180;-77
2021/09/16 14:34:28;;;;;;;9.80;5.70;;;24.70;83.30;;;;;;8282196;28;20299;-77
2021/09/16 14:38:31;;;;;;;9.33;6.70;;;24.80;82.30;;;;;;8283740;28;20187;-78
2021/09/16 14:42:32;;;;;;;11.43;6.23;;;25.00;82.50;;;;;;8285804;28;20232;-78
2021/09/16 14:46:33;;;;;;;9.93;6.73;;;25.10;82.00;;;;;;8281026;28;21274;-76
2021/09/16 14:50:37;;;;;;;8.67;5.97;;;25.10;82.10;;;;;;8282484;28;20231;-76
2021/09/16 14:54:38;;;;;;;5.80;5.33;;;25.00;81.10;;;;;;8286853;28;20443;-78
2021/09/16 14:58:39;;;;;;;3.30;2.50;;;24.80;80.40;;;;;;8286931;28;21184;-77
2021/09/16 15:02:39;;;;;;;7.63;3.10;;;24.40;79.30;;;;;;8269532;28;20211;-77
2021/09/16 15:06:40;;;;;;;3.67;2.73;;;24.00;80.70;;;;;;8283563;28;20278;-76
2021/09/16 15:10:41;;;;;;;8.17;3.30;;;23.50;81.90;;;;;;8290042;28;20180;-77
2021/09/16 15:14:41;;;;;;;3.93;2.50;;;23.10;82.80;;;;;;8287735;28;20291;-77
2021/09/16 15:18:42;;;;;;;3.23;1.83;;;23.00;83.80;;;;;;8262415;28;20188;-78
2021/09/16 15:22:43;;;;;;;3.30;2.37;;;23.10;81.30;;;;;;8288908;28;20217;-77
2021/09/16 15:26:46;;;;;;;2.70;2.30;;;23.10;81.30;;;;;;8289847;28;20176;-78
2021/09/16 15:30:47;;;;;;;4.63;2.20;;;23.00;83.00;;;;;;8293369;28;20706;-76
2021/09/16 15:34:47;;;;;;;3.60;2.43;;;23.00;83.00;;;;;;8274157;28;20410;-78
2021/09/16 15:38:48;;;;;;;2.40;2.20;;;23.00;83.30;;;;;;8272576;28;20632;-76
2021/09/16 15:42:49;;;;;;;3.30;2.70;;;23.20;83.70;;;;;;8295616;28;20215;-78
2021/09/16 15:46:49;;;;;;;2.03;1.93;;;23.40;83.70;;;;;;8254766;28;20290;-79
2021/09/16 15:50:50;;;;;;;7.17;2.77;;;23.40;83.60;;;;;;8276273;28;20679;-76
2021/09/16 15:54:51;;;;;;;8.43;2.90;;;23.30;84.90;;;;;;8267859;28;20200;-77
2021/09/16 15:58:52;;;;;;;3.50;2.47;;;23.10;85.10;;;;;;8268852;28;21872;-76
2021/09/16 16:02:52;;;;;;;7.70;3.00;;;23.00;84.60;;;;;;8267395;28;20475;-77
2021/09/16 16:06:53;;;;;;;13.77;3.33;;;22.80;85.30;;;;;;8267764;28;20211;-77
2021/09/16 16:10:54;;;;;;;4.70;3.20;;;22.70;85.90;;;;;;8274826;28;20884;-77
2021/09/16 16:14:54;;;;;;;3.90;3.30;;;22.60;87.60;;;;;;8277754;28;20184;-77
2021/09/16 16:18:56;;;;;;;6.20;2.63;;;22.50;87.80;;;;;;8276903;28;20189;-77
2021/09/16 16:22:56;;;;;;;3.40;2.93;;;22.40;88.30;;;;;;8258145;28;20212;-77
2021/09/16 16:26:58;;;;;;;3.43;2.80;;;22.30;88.00;;;;;;8280342;28;20615;-77
2021/09/16 16:30:59;;;;;;;3.35;2.60;;;22.30;88.40;;;;;;8275676;28;20429;-77
2021/09/16 16:35:00;;;;;;;7.77;3.57;;;22.20;90.70;;;;;;8278315;28;20192;-78
2021/09/16 16:39:01;;;;;;;3.57;2.53;;;21.90;90.20;;;;;;8296771;28;20550;-79
2021/09/16 16:43:04;;;;;;;5.60;3.83;;;21.70;90.70;;;;;;8280033;28;20216;-78
2021/09/16 16:47:05;;;;;;;4.80;4.40;;;21.70;90.60;;;;;;8304717;28;20878;-77
2021/09/16 16:51:06;;;;;;;4.47;4.07;;;21.60;90.50;;;;;;8289076;28;20474;-77
2021/09/16 16:55:08;;;;;;;3.90;3.60;;;21.60;90.50;;;;;;8287692;28;20223;-76
2021/09/16 16:59:10;;;;;;;6.73;4.50;;;21.60;90.70;;;;;;8265654;28;20223;-76
2021/09/16 17:03:10;;;;;;;5.70;4.20;;;21.60;90.70;;;;;;8290151;28;21004;-78
2021/09/16 17:07:11;;;;;;;4.33;4.00;;;21.50;90.90;;;;;;8290778;28;20435;-77
2021/09/16 17:11:12;;;;;;;9.00;5.83;;;21.40;91.30;;;;;;8289194;28;20198;-77
2021/09/16 17:15:13;;;;;;;8.83;6.50;;;21.30;91.70;;;;;;8295370;28;20188;-78
2021/09/16 17:19:15;;;;;;;6.67;6.10;;;21.20;91.90;;;;;;8282578;28;20577;-78
2021/09/16 17:23:15;;;;;;;6.07;5.53;;;21.10;92.00;;;;;;8289254;28;20460;-78
2021/09/16 17:27:16;;;;;;;6.97;6.40;;;20.90;92.00;;;;;;8288891;28;20556;-78
2021/09/16 17:31:17;;;;;;;7.00;6.20;;;20.80;92.60;;;;;;8289049;28;20195;-78
2021/09/16 17:35:18;;;;;;;5.67;5.10;;;20.70;92.90;;;;;;8289453;28;20180;-78
2021/09/16 17:39:19;;;;;;;5.57;5.00;;;20.60;93.40;;;;;;8286759;28;20516;-78
2021/09/16 17:43:20;;;;;;;10.93;6.50;;;20.50;93.70;;;;;;8283284;28;21235;-77
2021/09/16 17:47:20;;;;;;;7.20;6.47;;;20.40;94.10;;;;;;8284066;28;20188;-77
2021/09/16 17:51:21;;;;;;;6.80;6.20;;;20.30;94.20;;;;;;8285589;28;20684;-77
2021/09/16 17:55:22;;;;;;;14.50;7.80;;;20.20;94.40;;;;;;8263766;28;20279;-77
2021/09/16 17:59:23;;;;;;;7.77;7.10;;;20.10;94.60;;;;;;8277899;28;20191;-78
2021/09/16 18:03:23;;;;;;;7.70;7.00;;;20.10;94.80;;;;;;8295932;28;20208;-80
2021/09/16 18:07:24;;;;;;;10.23;6.50;;;20.00;94.90;;;;;;8285544;28;20246;-77
2021/09/16 18:11:25;;;;;;;6.27;5.77;;;20.00;95.00;;;;;;8314092;28;20180;-79
2021/09/16 18:15:26;;;;;;;6.30;5.70;;;19.90;94.90;;;;;;8314063;28;21452;-78
2021/09/16 18:19:29;;;;;;;8.00;5.80;;;19.90;95.00;;;;;;8291874;28;20699;-79
2021/09/16 18:23:30;;;;;;;5.67;5.07;;;19.80;95.20;;;;;;8293388;28;20208;-79
2021/09/16 18:27:30;;;;;;;7.50;6.00;;;19.80;95.30;;;;;;8307894;28;20783;-79
2021/09/16 18:31:31;;;;;;;7.67;6.13;;;19.80;95.30;;;;;;8285187;28;20189;-78
2021/09/16 18:35:32;;;;;;;7.30;5.70;;;19.70;95.40;;;;;;8296127;28;20173;-78
2021/09/16 18:39:33;;;;;;;5.73;5.23;;;19.70;95.50;;;;;;8274849;28;20691;-79
2021/09/16 18:43:33;;;;;;;5.70;5.20;;;19.70;95.30;;;;;;8285967;28;20651;-78
2021/09/16 18:47:34;;;;;;;9.23;5.93;;;19.60;95.60;;;;;;8282321;28;20184;-79
2021/09/16 18:51:34;;;;;;;9.10;5.10;;;19.60;95.50;;;;;;8291037;28;20235;-77
2021/09/16 18:55:35;;;;;;;6.10;5.70;;;19.60;95.50;;;;;;8286631;28;20216;-78
2021/09/16 18:59:36;;;;;;;5.57;5.17;;;19.50;95.60;;;;;;8283307;28;20181;-81
2021/09/16 19:03:38;;;;;;;7.97;5.53;;;19.50;95.50;;;;;;8289245;28;20224;-80
2021/09/16 19:07:40;;;;;;;8.90;5.03;;;19.50;95.60;;;;;;8274890;28;20440;-79
2021/09/16 19:11:41;;;;;;;7.30;5.13;;;19.50;95.60;;;;;;8260506;28;20188;-78
2021/09/16 19:15:42;;;;;;;7.47;5.50;;;19.50;95.70;;;;;;8285007;28;20642;-78
2021/09/16 19:19:42;;;;;;;6.07;5.30;;;19.50;95.60;;;;;;8265035;28;20176;-78
2021/09/16 19:23:43;;;;;;;6.60;6.10;;;19.50;95.80;;;;;;8284855;28;20852;-79
2021/09/16 19:27:44;;;;;;;6.20;5.80;;;19.40;95.90;;;;;;8261430;28;20185;-80
2021/09/16 19:31:46;;;;;;;5.83;5.23;;;19.40;96.00;;;;;;8274186;28;20295;-80
2021/09/16 19:35:47;;;;;;;6.43;5.83;;;19.40;96.40;;;;;;8273664;28;20490;-78
2021/09/16 19:39:48;;;;;;;6.27;5.87;;;19.30;96.20;;;;;;8282120;28;20499;-78
2021/09/16 19:43:49;;;;;;;6.73;6.13;;;19.30;96.30;;;;;;8272497;28;20548;-79
2021/09/16 19:47:49;;;;;;;9.60;6.10;;;19.30;96.40;;;;;;8276392;28;20439;-77
2021/09/16 19:51:50;;;;;;;7.50;5.87;;;19.30;96.60;;;;;;8274945;28;20259;-80
2021/09/16 19:55:55;;;;;;;5.07;4.63;;;19.30;96.70;;;;;;8285943;28;20195;-79
2021/09/16 19:59:55;;;;;;;8.10;5.73;;;19.30;96.60;;;;;;8285131;28;20188;-77
2021/09/16 20:03:57;;;;;;;6.93;5.70;;;19.30;96.70;;;;;;8284678;28;20481;-78
2021/09/16 20:07:57;;;;;;;8.57;5.83;;;19.20;96.70;;;;;;8279473;28;20196;-78
2021/09/16 20:11:58;;;;;;;7.17;5.40;;;19.20;96.70;;;;;;8263671;28;20559;-78
2021/09/16 20:15:59;;;;;;;6.60;5.60;;;19.20;96.70;;;;;;8282510;28;20229;-80
2021/09/16 20:20:00;;;;;;;7.00;4.90;;;19.20;96.80;;;;;;8283418;28;20781;-79
2021/09/16 20:24:01;;;;;;;14.03;7.20;;;19.20;96.90;;;;;;8289985;28;20467;-79
2021/09/16 20:28:02;;;;;;;8.27;5.73;;;19.20;96.80;;;;;;8284587;28;21222;-78
2021/09/16 20:32:03;;;;;;;10.70;7.60;;;19.10;97.00;;;;;;8291393;28;20523;-77
2021/09/16 20:36:04;;;;;;;6.67;5.33;;;19.10;96.80;;;;;;8292225;28;20324;-78
2021/09/16 20:40:06;;;;;;;11.53;6.40;;;19.00;96.90;;;;;;8281000;28;20834;-79
2021/09/16 20:44:06;;;;;;;7.30;6.20;;;19.00;96.90;;;;;;8252932;28;20303;-80
2021/09/16 20:48:07;;;;;;;6.70;6.03;;;18.90;97.00;;;;;;8274081;28;20526;-80
2021/09/16 20:52:08;;;;;;;8.60;5.20;;;18.80;97.10;;;;;;8282390;28;20223;-79